Holy Cross, Alaska
Current Conditions -  °F | °C
As of 12:56 PM on Wednesday 28 Jan 2015 (Local Time) from PAHC Reporting Station
Clear Clear  
Wind Chill: -30°   Ceiling: Unl
Heat Index: -10°   Visibility: 10mi
Dew Point: -20°   Wind: 12mph
Humidity: 62%   Direction: 360°N
Pressure: 30.32"   Gusts: NA
Location:  62.2°N, 159.77°W
Report Text: PAHC 282156Z AUTO 36010KT 10SM CLR M23/M29 A3032 RMK AO2 TSNO T12331288 SLP274 $
Loading
Personal Weather Stations






























Interactive Weather Map New forecast layout! Learn more

10-Day Weather Forecast

Advertisements
Track Severe Weather on mobile